createdAt,value
2018-08-20T00:02:05.993Z,98.00
2018-08-20T00:04:41.009Z,98.00
2018-08-20T00:07:09.502Z,98.00
2018-08-20T00:09:43.389Z,98.00
2018-08-20T00:12:12.395Z,98.20
2018-08-20T00:14:40.836Z,98.20
2018-08-20T00:17:14.472Z,98.30
2018-08-20T00:19:42.870Z,98.30
2018-08-20T00:22:11.265Z,98.30
2018-08-20T00:24:39.647Z,98.40
2018-08-20T00:27:08.162Z,98.40
2018-08-20T00:29:37.788Z,98.30
2018-08-20T00:32:06.483Z,98.50
2018-08-20T00:34:37.015Z,98.50
2018-08-20T00:37:05.409Z,98.50
2018-08-20T00:39:33.831Z,98.50
2018-08-20T00:42:02.123Z,98.60
2018-08-20T00:44:31.675Z,99.00
2018-08-20T00:47:00.162Z,98.60
2018-08-20T00:49:28.529Z,98.40
2018-08-20T00:51:56.860Z,98.50
2018-08-20T00:54:29.268Z,98.30
2018-08-20T00:56:57.861Z,98.10
2018-08-20T00:59:26.214Z,98.10
2018-08-20T01:01:54.540Z,97.90
2018-08-20T01:04:24.995Z,97.70
2018-08-20T01:06:53.391Z,97.50
2018-08-20T01:09:21.904Z,97.50
2018-08-20T01:11:50.184Z,97.60
2018-08-20T01:14:21.952Z,97.50
2018-08-20T01:16:50.111Z,97.60
2018-08-20T01:19:18.359Z,97.30
2018-08-20T01:21:46.963Z,97.10
2018-08-20T01:24:15.490Z,97.10
2018-08-20T01:26:43.754Z,97.20
2018-08-20T01:29:13.374Z,97.10
2018-08-20T01:31:41.789Z,97.20
2018-08-20T01:34:11.208Z,97.30
2018-08-20T01:36:42.822Z,97.10
2018-08-20T01:39:11.724Z,96.90
2018-08-20T01:41:39.953Z,96.90
2018-08-20T01:44:08.461Z,97.00
2018-08-20T01:46:36.765Z,96.90
2018-08-20T01:49:04.985Z,96.80
2018-08-20T01:51:33.477Z,96.70
2018-08-20T01:54:01.806Z,96.60
2018-08-20T01:56:36.107Z,96.50
2018-08-20T01:59:04.724Z,96.40
2018-08-20T02:01:33.127Z,96.40
2018-08-20T02:04:01.600Z,96.30
2018-08-20T02:06:31.130Z,96.20
2018-08-20T02:08:59.731Z,96.20
2018-08-20T02:11:28.153Z,96.10
2018-08-20T02:13:57.170Z,96.00
2018-08-20T02:16:35.460Z,96.00
2018-08-20T02:19:03.790Z,96.00
2018-08-20T02:21:32.172Z,96.00
2018-08-20T02:24:00.587Z,96.00
2018-08-20T02:26:35.139Z,96.10
2018-08-20T02:29:03.825Z,96.10
2018-08-20T02:31:32.223Z,96.20
2018-08-20T02:34:00.728Z,96.20
2018-08-20T02:36:41.297Z,95.90
2018-08-20T02:39:12.100Z,96.30
2018-08-20T02:41:40.825Z,96.30
2018-08-20T02:44:10.028Z,96.30
2018-08-20T02:46:50.357Z,96.30
2018-08-20T02:49:19.415Z,96.30
2018-08-20T02:51:48.616Z,96.40
2018-08-20T02:54:16.952Z,96.40
2018-08-20T02:56:48.257Z,96.40
2018-08-20T02:59:17.468Z,96.50
2018-08-20T03:01:45.750Z,96.20
2018-08-20T03:04:14.125Z,96.20
2018-08-20T03:06:44.669Z,96.20
2018-08-20T03:09:14.051Z,96.10
2018-08-20T03:11:42.495Z,96.10
2018-08-20T03:14:11.674Z,96.20
2018-08-20T03:16:42.074Z,96.20
2018-08-20T03:19:10.563Z,96.30
2018-08-20T03:21:39.084Z,96.40
2018-08-20T03:24:15.456Z,96.50
2018-08-20T03:26:43.661Z,96.50
2018-08-20T03:29:12.152Z,96.60
2018-08-20T03:31:40.670Z,96.60
2018-08-20T03:34:13.460Z,96.70
2018-08-20T03:36:42.288Z,96.70
2018-08-20T03:39:10.741Z,96.70
2018-08-20T03:41:39.257Z,96.70
2018-08-20T03:44:07.758Z,96.70
2018-08-20T03:46:36.978Z,97.20
2018-08-20T03:49:05.875Z,96.70
2018-08-20T03:51:34.189Z,96.60
2018-08-20T03:54:02.687Z,96.70
2018-08-20T03:56:31.409Z,96.70
2018-08-20T03:58:59.901Z,96.60
2018-08-20T04:01:28.410Z,96.70
2018-08-20T04:03:58.012Z,96.80
2018-08-20T04:06:26.417Z,96.80
2018-08-20T04:08:54.837Z,96.90
2018-08-20T04:11:23.207Z,97.00
2018-08-20T04:13:59.495Z,96.90
2018-08-20T04:16:27.713Z,96.90
2018-08-20T04:19:00.532Z,97.00
2018-08-20T04:21:29.008Z,96.90
2018-08-20T04:23:59.541Z,96.90
2018-08-20T04:26:28.036Z,96.90
2018-08-20T04:28:56.458Z,97.00
2018-08-20T04:31:26.865Z,96.70
2018-08-20T04:33:55.749Z,96.90
2018-08-20T04:36:24.029Z,96.90
2018-08-20T04:38:52.413Z,97.00
2018-08-20T04:41:24.182Z,97.00
2018-08-20T04:43:52.579Z,97.00
2018-08-20T04:46:21.203Z,96.90
2018-08-20T04:48:49.584Z,97.10
2018-08-20T04:51:18.293Z,97.00
2018-08-20T04:53:46.668Z,96.90
2018-08-20T04:56:15.059Z,97.00
2018-08-20T04:58:43.475Z,96.60
2018-08-20T05:01:11.994Z,96.60
2018-08-20T05:03:40.163Z,96.50
2018-08-20T05:06:09.017Z,96.40
2018-08-20T05:08:37.352Z,96.50
2018-08-20T05:11:05.773Z,96.70
2018-08-20T05:13:34.211Z,97.30
2018-08-20T05:16:02.667Z,97.30
2018-08-20T05:18:31.674Z,96.10
2018-08-20T05:21:00.196Z,94.10
2018-08-20T05:23:28.511Z,91.80
2018-08-20T05:25:56.880Z,88.20
2018-08-20T05:28:25.190Z,82.10
2018-08-20T05:30:53.792Z,75.60
2018-08-20T05:33:22.210Z,69.30
2018-08-20T05:35:50.461Z,62.60
2018-08-20T05:38:18.894Z,58.20
2018-08-20T05:40:47.227Z,55.00
2018-08-20T05:43:15.741Z,52.20
2018-08-20T05:45:44.090Z,49.40
2018-08-20T05:48:14.529Z,48.00
2018-08-20T05:50:42.937Z,45.90
2018-08-20T05:53:11.336Z,43.20
2018-08-20T05:55:39.828Z,41.60
2018-08-20T05:58:08.150Z,39.80
2018-08-20T06:00:36.645Z,37.90
2018-08-20T06:03:04.941Z,37.00
2018-08-20T06:05:33.565Z,35.50
2018-08-20T06:08:01.930Z,33.70
2018-08-20T06:10:30.472Z,33.00
2018-08-20T06:12:58.780Z,31.50
2018-08-20T06:15:27.457Z,30.40
2018-08-20T06:17:56.055Z,29.70
2018-08-20T06:21:22.523Z,29.20
2018-08-20T06:23:51.164Z,28.70
2018-08-20T06:26:20.822Z,28.90
2018-08-20T06:28:49.496Z,28.10
2018-08-20T06:31:18.025Z,27.40
2018-08-20T06:33:46.302Z,27.40
2018-08-20T06:36:14.796Z,26.90
2018-08-20T06:38:43.281Z,26.40
2018-08-20T06:41:11.807Z,26.10
2018-08-20T06:43:40.211Z,25.90
2018-08-20T06:46:08.695Z,26.00
2018-08-20T06:48:37.114Z,25.70
2018-08-20T06:51:05.640Z,26.00
2018-08-20T06:53:35.011Z,25.90
2018-08-20T06:56:03.507Z,26.00
2018-08-20T06:58:31.497Z,26.60
2018-08-20T07:00:59.839Z,25.80
2018-08-20T07:03:28.244Z,25.30
2018-08-20T07:05:56.822Z,24.90
2018-08-20T07:08:25.316Z,24.50
2018-08-20T07:10:53.732Z,24.30
2018-08-20T07:13:36.311Z,24.10
2018-08-20T07:16:05.532Z,24.10
2018-08-20T07:18:33.994Z,23.80
2018-08-20T07:21:17.092Z,23.60
2018-08-20T07:23:45.804Z,23.50
2018-08-20T07:26:14.057Z,23.30
2018-08-20T07:28:42.587Z,22.90
2018-08-20T07:31:11.163Z,22.70
2018-08-20T07:33:39.789Z,23.10
2018-08-20T07:36:08.184Z,22.70
2018-08-20T07:38:36.844Z,22.60
2018-08-20T07:41:05.469Z,22.40
2018-08-20T07:43:33.984Z,22.30
2018-08-20T07:46:02.386Z,22.10
2018-08-20T07:48:30.557Z,22.00
2018-08-20T07:50:58.977Z,21.70
2018-08-20T07:53:27.390Z,21.60
2018-08-20T07:55:55.932Z,21.40
2018-08-20T07:58:24.414Z,21.10
2018-08-20T08:00:52.890Z,21.10
2018-08-20T08:09:08.893Z,21.30
2018-08-20T08:11:37.230Z,21.80
2018-08-20T08:14:06.346Z,21.40
2018-08-20T08:16:36.095Z,21.50
2018-08-20T08:19:04.455Z,21.20
2018-08-20T08:21:33.070Z,21.10
2018-08-20T08:24:02.214Z,21.00
2018-08-20T08:26:32.891Z,21.40
2018-08-20T08:29:01.338Z,21.20
2018-08-20T08:31:29.830Z,21.40
2018-08-20T08:33:58.784Z,21.90
2018-08-20T08:36:27.189Z,22.60
2018-08-20T08:38:55.439Z,23.10
2018-08-20T08:41:23.832Z,23.40
2018-08-20T08:43:52.254Z,23.80
2018-08-20T08:46:20.846Z,24.70
2018-08-20T08:48:49.360Z,25.90
2018-08-20T08:51:17.653Z,26.90
2018-08-20T08:53:46.259Z,28.30
2018-08-20T08:56:14.668Z,29.70
2018-08-20T08:58:43.059Z,31.20
2018-08-20T09:02:03.624Z,32.60
2018-08-20T09:04:32.113Z,34.30
2018-08-20T09:07:00.431Z,35.30
2018-08-20T09:09:28.917Z,37.00
2018-08-20T09:11:57.902Z,37.00
2018-08-20T09:14:26.418Z,37.60
2018-08-20T09:16:54.731Z,38.30
2018-08-20T09:19:23.440Z,39.50
2018-08-20T09:21:51.939Z,39.90
2018-08-20T09:24:20.344Z,40.00
2018-08-20T09:26:48.728Z,40.60
2018-08-20T09:29:17.361Z,41.20
2018-08-20T09:31:45.638Z,41.60
2018-08-20T09:34:13.748Z,42.50
2018-08-20T09:36:42.042Z,42.70
2018-08-20T09:39:10.437Z,42.30
2018-08-20T09:41:38.838Z,42.80
2018-08-20T09:44:07.241Z,42.80
2018-08-20T09:46:35.659Z,43.20
2018-08-20T09:49:04.055Z,43.60
2018-08-20T09:51:32.405Z,43.60
2018-08-20T09:54:00.937Z,43.70
2018-08-20T09:56:29.343Z,43.90
2018-08-20T09:58:58.177Z,44.70
2018-08-20T10:01:26.565Z,44.50
2018-08-20T10:03:55.055Z,44.40
2018-08-20T10:06:23.566Z,44.30
2018-08-20T10:08:51.586Z,44.20
2018-08-20T10:11:22.082Z,44.80
2018-08-20T10:13:50.479Z,45.30
2018-08-20T10:16:18.967Z,45.30
2018-08-20T10:18:47.475Z,44.90
2018-08-20T10:21:15.956Z,45.10
2018-08-20T10:23:44.157Z,45.50
2018-08-20T10:26:12.597Z,45.70
2018-08-20T10:28:40.994Z,45.80
2018-08-20T10:31:09.382Z,45.70
2018-08-20T10:33:37.729Z,45.50
2018-08-20T10:36:06.064Z,45.90
2018-08-20T10:38:34.471Z,46.20
2018-08-20T10:41:02.811Z,46.20
2018-08-20T10:43:31.086Z,45.60
2018-08-20T10:46:05.015Z,45.60
2018-08-20T10:48:33.324Z,45.00
2018-08-20T10:51:01.798Z,45.30
2018-08-20T10:53:30.188Z,45.60
2018-08-20T10:55:58.643Z,45.40
2018-08-20T10:58:27.199Z,45.20
2018-08-20T11:00:56.389Z,45.60
2018-08-20T11:03:24.930Z,45.60
2018-08-20T11:05:53.300Z,45.70
2018-08-20T11:08:21.633Z,45.70
2018-08-20T11:10:50.016Z,45.10
2018-08-20T11:13:18.233Z,45.20
2018-08-20T11:15:46.599Z,45.40
2018-08-20T11:18:15.175Z,45.00
2018-08-20T11:20:43.621Z,45.00
2018-08-20T11:23:12.031Z,45.10
2018-08-20T11:25:41.918Z,45.10
2018-08-20T11:28:11.422Z,45.30
2018-08-20T11:30:40.020Z,44.70
2018-08-20T11:33:08.475Z,44.70
2018-08-20T11:35:36.874Z,44.50
2018-08-20T11:38:05.584Z,45.00
2018-08-20T11:40:33.722Z,45.30
2018-08-20T11:43:01.986Z,45.50
2018-08-20T11:45:30.484Z,45.30
2018-08-20T11:47:58.786Z,45.40
2018-08-20T11:50:27.694Z,45.00
2018-08-20T11:52:56.193Z,44.60
2018-08-20T11:55:24.671Z,44.20
2018-08-20T11:57:52.985Z,44.10
2018-08-20T12:00:21.536Z,44.30
2018-08-20T12:02:50.089Z,44.40
2018-08-20T12:05:18.517Z,44.30
2018-08-20T12:07:46.999Z,45.00
2018-08-20T12:10:15.194Z,44.60
2018-08-20T12:12:43.834Z,44.50
2018-08-20T12:15:12.716Z,44.80
2018-08-20T12:17:41.827Z,44.90
2018-08-20T12:20:10.420Z,45.30
2018-08-20T12:22:40.010Z,45.30
2018-08-20T12:25:11.634Z,45.20
2018-08-20T12:27:40.263Z,44.60
2018-08-20T12:30:09.369Z,44.80
2018-08-20T12:32:38.544Z,45.10
2018-08-20T12:35:07.714Z,45.20
2018-08-20T12:37:35.983Z,45.00
2018-08-20T12:40:04.972Z,45.40
2018-08-20T12:42:34.507Z,46.00
2018-08-20T12:45:03.875Z,46.60
2018-08-20T12:47:32.228Z,46.80
2018-08-20T12:50:00.553Z,46.50
2018-08-20T12:52:29.144Z,46.30
2018-08-20T12:54:57.760Z,46.40
2018-08-20T12:57:26.459Z,46.70
2018-08-20T12:59:57.455Z,46.90
2018-08-20T13:02:26.545Z,46.90
2018-08-20T13:04:54.708Z,46.40
2018-08-20T13:07:23.120Z,46.10
2018-08-20T13:09:51.605Z,46.10
2018-08-20T13:12:19.992Z,46.60
2018-08-20T13:14:48.442Z,46.60
2018-08-20T13:17:17.678Z,47.10
2018-08-20T13:19:46.050Z,47.20
2018-08-20T13:22:14.494Z,47.00
2018-08-20T13:24:43.146Z,47.50
2018-08-20T13:27:12.933Z,47.70
2018-08-20T13:29:41.593Z,47.60
2018-08-20T13:32:10.100Z,46.40
2018-08-20T13:34:38.511Z,47.00
2018-08-20T13:37:07.192Z,46.70
2018-08-20T13:39:35.597Z,47.30
2018-08-20T13:42:04.799Z,47.70
2018-08-20T13:44:33.939Z,48.10
2018-08-20T13:47:02.561Z,47.70
2018-08-20T13:49:31.885Z,48.10
2018-08-20T13:52:00.551Z,47.50
2018-08-20T13:54:29.303Z,47.40
2018-08-20T13:56:57.791Z,47.80
2018-08-20T13:59:26.147Z,48.10
2018-08-20T14:01:54.685Z,47.80
2018-08-20T14:04:23.520Z,48.20
2018-08-20T14:06:51.688Z,48.60
2018-08-20T14:09:20.181Z,47.70
2018-08-20T14:11:49.110Z,47.90
2018-08-20T14:14:17.470Z,48.30
2018-08-20T14:16:45.875Z,48.40
2018-08-20T14:19:14.078Z,48.00
2018-08-20T14:21:42.667Z,48.00
2018-08-20T14:24:10.959Z,47.70
2018-08-20T14:26:40.095Z,47.60
2018-08-20T14:29:08.713Z,47.60
2018-08-20T14:31:37.201Z,48.20
2018-08-20T14:34:06.401Z,48.50
2018-08-20T14:36:35.113Z,48.60
2018-08-20T14:39:03.673Z,48.90
2018-08-20T14:41:32.121Z,49.10
2018-08-20T14:44:00.810Z,49.10
2018-08-20T14:46:29.327Z,49.40
2018-08-20T14:48:57.968Z,49.40
2018-08-20T14:51:26.503Z,49.60
2018-08-20T14:53:55.049Z,50.10
2018-08-20T14:56:23.553Z,50.70
2018-08-20T14:58:51.818Z,50.90
2018-08-20T15:01:20.144Z,51.00
2018-08-20T15:03:48.513Z,51.00
2018-08-20T15:06:17.078Z,51.50
2018-08-20T15:08:45.554Z,51.50
2018-08-20T15:11:14.053Z,51.00
2018-08-20T15:13:42.431Z,51.10
2018-08-20T15:16:10.648Z,51.40
2018-08-20T15:18:39.062Z,51.70
2018-08-20T15:21:07.419Z,51.60
2018-08-20T15:23:35.853Z,51.70
2018-08-20T15:26:04.445Z,52.00
2018-08-20T15:28:33.715Z,52.00
2018-08-20T15:31:02.172Z,52.60
2018-08-20T15:33:30.462Z,52.80
2018-08-20T15:35:59.599Z,52.90
2018-08-20T15:38:27.847Z,53.30
2018-08-20T15:40:56.172Z,53.10
2018-08-20T15:43:24.578Z,53.30
2018-08-20T15:45:53.059Z,53.60
2018-08-20T15:48:21.458Z,54.10
2018-08-20T15:50:49.455Z,54.50
2018-08-20T15:53:17.845Z,54.80
2018-08-20T15:55:46.065Z,54.90
2018-08-20T15:58:14.502Z,55.20
2018-08-20T16:00:43.183Z,55.30
2018-08-20T16:03:11.548Z,55.40
2018-08-20T16:05:40.055Z,55.60
2018-08-20T16:08:08.574Z,56.10
2018-08-20T16:10:36.951Z,55.60
2018-08-20T16:13:05.427Z,55.60
2018-08-20T16:15:34.306Z,55.80
2018-08-20T16:18:02.770Z,56.10
2018-08-20T16:20:31.192Z,56.20
2018-08-20T16:22:59.590Z,56.40
2018-08-20T16:25:27.853Z,56.30
2018-08-20T16:27:56.076Z,56.60
2018-08-20T16:30:24.789Z,56.90
2018-08-20T16:32:55.326Z,56.40
2018-08-20T16:35:23.936Z,56.30
2018-08-20T16:37:52.360Z,56.40
2018-08-20T16:40:20.836Z,56.40
2018-08-20T16:42:49.436Z,56.40
2018-08-20T16:45:18.119Z,56.40
2018-08-20T16:47:46.753Z,56.60
2018-08-20T16:50:15.250Z,57.00
2018-08-20T16:52:43.722Z,57.10
2018-08-20T16:55:12.268Z,57.10
2018-08-20T16:57:40.557Z,57.20
2018-08-20T17:00:10.750Z,57.00
2018-08-20T17:02:42.042Z,57.10
2018-08-20T17:05:11.671Z,57.30
2018-08-20T17:07:40.192Z,57.60
2018-08-20T17:10:09.757Z,58.40
2018-08-20T17:14:07.809Z,58.00
2018-08-20T17:16:36.588Z,58.20
2018-08-20T17:19:05.142Z,58.80
2018-08-20T17:21:33.729Z,59.10
2018-08-20T17:24:02.133Z,59.40
2018-08-20T17:26:30.746Z,59.60
2018-08-20T17:29:03.631Z,59.70
2018-08-20T17:31:31.941Z,59.70
2018-08-20T17:34:00.577Z,59.90
2018-08-20T17:36:29.049Z,60.20
2018-08-20T17:38:57.537Z,60.40
2018-08-20T17:41:25.714Z,60.20
2018-08-20T17:43:54.256Z,60.00
2018-08-20T17:46:23.434Z,59.90
2018-08-20T17:48:52.042Z,60.10
2018-08-20T17:51:20.558Z,60.70
2018-08-20T17:53:51.777Z,59.90
2018-08-20T17:56:20.839Z,60.10
2018-08-20T17:58:57.046Z,60.00
2018-08-20T18:01:25.908Z,60.00
2018-08-20T18:03:54.822Z,60.30
2018-08-20T18:06:36.299Z,60.70
2018-08-20T18:09:05.003Z,60.80
2018-08-20T18:11:34.043Z,61.00
2018-08-20T18:14:02.472Z,61.30
2018-08-20T18:16:30.825Z,61.60
2018-08-20T18:18:59.238Z,61.90
2018-08-20T18:21:28.234Z,62.10
2018-08-20T18:23:56.711Z,62.20
2018-08-20T18:26:29.611Z,62.60
2018-08-20T18:28:58.256Z,62.50
2018-08-20T18:31:27.749Z,63.00
2018-08-20T18:33:56.712Z,63.10
2018-08-20T18:36:27.120Z,62.90
2018-08-20T18:39:02.798Z,62.90
2018-08-20T18:42:23.566Z,63.20
2018-08-20T18:44:51.851Z,63.20
2018-08-20T18:47:20.156Z,63.40
2018-08-20T18:49:54.749Z,63.70
2018-08-20T18:52:23.514Z,64.90
2018-08-20T18:54:53.924Z,64.50
2018-08-20T18:57:24.578Z,65.00
2018-08-20T18:59:55.228Z,65.80
2018-08-20T19:02:48.192Z,65.80
2018-08-20T19:05:17.595Z,66.20
2018-08-20T19:07:46.220Z,66.40
2018-08-20T19:10:20.979Z,67.00
2018-08-20T19:12:49.360Z,67.50
2018-08-20T19:15:28.479Z,68.10
2018-08-20T19:17:57.489Z,68.30
2018-08-20T19:20:26.117Z,69.10
2018-08-20T19:22:54.734Z,69.10
2018-08-20T19:25:24.252Z,71.70
2018-08-20T19:27:52.903Z,71.90
2018-08-20T19:30:22.673Z,73.10
2018-08-20T19:32:51.206Z,74.00
2018-08-20T19:35:19.754Z,74.80
2018-08-20T19:37:48.994Z,75.60
2018-08-20T19:40:17.536Z,76.20
2018-08-20T19:42:46.202Z,76.90
2018-08-20T19:45:15.214Z,77.50
2018-08-20T19:47:43.620Z,78.30
2018-08-20T19:50:12.412Z,78.80
2018-08-20T19:52:40.600Z,79.30
2018-08-20T19:55:11.141Z,79.90
2018-08-20T19:57:39.735Z,80.30
2018-08-20T20:00:12.026Z,81.00
2018-08-20T20:02:43.423Z,81.60
2018-08-20T20:05:13.733Z,82.30
2018-08-20T20:07:53.663Z,82.80
2018-08-20T20:10:22.034Z,83.20
2018-08-20T20:12:52.425Z,83.80
2018-08-20T20:15:20.861Z,84.30
2018-08-20T20:17:49.639Z,84.60
2018-08-20T20:20:18.195Z,85.00
2018-08-20T20:22:46.393Z,85.90
2018-08-20T20:25:15.169Z,86.70
2018-08-20T20:27:43.813Z,87.20
2018-08-20T20:30:12.276Z,87.60
2018-08-20T20:32:40.708Z,87.80
2018-08-20T20:35:09.974Z,88.50
2018-08-20T20:37:38.468Z,89.40
2018-08-20T20:40:07.508Z,90.10
2018-08-20T20:42:36.114Z,90.40
2018-08-20T20:45:04.621Z,90.80
2018-08-20T20:47:33.004Z,90.50
2018-08-20T20:50:01.449Z,91.00
2018-08-20T20:52:29.851Z,91.10
2018-08-20T20:54:57.931Z,91.20
2018-08-20T20:57:26.431Z,91.40
2018-08-20T20:59:55.082Z,91.50
2018-08-20T21:02:23.436Z,91.70
2018-08-20T21:04:52.023Z,92.10
2018-08-20T21:07:24.854Z,91.70
2018-08-20T21:09:53.221Z,91.80
2018-08-20T21:12:21.751Z,92.00
2018-08-20T21:14:50.143Z,92.20
2018-08-20T21:17:18.801Z,92.10
2018-08-20T21:19:47.437Z,92.20
2018-08-20T21:22:15.726Z,92.00
2018-08-20T21:24:44.053Z,92.00
2018-08-20T21:27:25.680Z,92.10
2018-08-20T21:29:59.534Z,92.20
2018-08-20T21:32:28.043Z,92.30
2018-08-20T21:34:56.668Z,92.40
2018-08-20T21:37:24.971Z,92.80
2018-08-20T21:39:53.449Z,92.60
2018-08-20T21:42:56.206Z,92.70
2018-08-20T21:45:24.626Z,92.70
2018-08-20T21:47:53.027Z,93.10
2018-08-20T21:50:21.531Z,92.90
2018-08-20T21:52:49.833Z,93.10
2018-08-20T21:55:18.214Z,93.30
2018-08-20T21:57:57.695Z,93.40
2018-08-20T22:00:27.041Z,93.50
2018-08-20T22:03:00.244Z,93.50
2018-08-20T22:05:29.106Z,93.60
2018-08-20T22:07:58.615Z,93.80
2018-08-20T22:10:28.309Z,93.90
2018-08-20T22:12:56.713Z,94.00
2018-08-20T22:15:25.239Z,94.10
2018-08-20T22:17:53.654Z,94.20
2018-08-20T22:20:21.775Z,94.20
2018-08-20T22:22:50.053Z,94.20
2018-08-20T22:25:18.933Z,94.10
2018-08-20T22:27:52.883Z,94.10
2018-08-20T22:30:21.247Z,94.20
2018-08-20T22:32:49.521Z,94.20
2018-08-20T22:35:23.109Z,94.40
2018-08-20T22:37:51.725Z,94.50
2018-08-20T22:40:20.656Z,94.40
2018-08-20T22:42:54.144Z,94.30
2018-08-20T22:45:22.648Z,94.20
2018-08-20T22:47:51.530Z,94.30
2018-08-20T22:50:20.130Z,94.10
2018-08-20T22:52:49.828Z,94.00
2018-08-20T22:55:19.337Z,94.20
2018-08-20T22:57:59.224Z,94.50
2018-08-20T23:00:28.089Z,94.60
2018-08-20T23:02:57.122Z,94.70
2018-08-20T23:05:30.414Z,94.80
2018-08-20T23:08:06.978Z,94.60
2018-08-20T23:10:38.328Z,94.50
2018-08-20T23:13:07.041Z,94.30
2018-08-20T23:15:35.337Z,94.30
2018-08-20T23:18:03.849Z,94.40
2018-08-20T23:20:32.643Z,94.30
2018-08-20T23:23:01.323Z,94.50
2018-08-20T23:25:29.747Z,94.50
2018-08-20T23:27:58.157Z,94.60
2018-08-20T23:30:26.441Z,94.60
2018-08-20T23:32:54.948Z,94.70
2018-08-20T23:35:23.430Z,94.80
2018-08-20T23:37:52.523Z,94.90
2018-08-20T23:40:21.188Z,95.00
2018-08-20T23:42:49.776Z,95.00
2018-08-20T23:45:18.247Z,95.10
2018-08-20T23:47:46.663Z,95.20
2018-08-20T23:50:15.147Z,95.30
2018-08-20T23:52:43.360Z,95.30
2018-08-20T23:55:11.660Z,95.30
2018-08-20T23:57:39.763Z,95.40
